»·PEaware :: N113SX KHQM-KCLM

N113SX :: KHQM-KCLM

FLIGHT INFORMATION

Flight Status: Arrived
Operator: Privately registered:
United States
More flights under this callsign
Pilot: Charles S. (30084)
Aircraft: MOONEY M-20 201 202 205 220 ATS MSE
(M20P)
More flights by this aircraft type
Origin: KHQM Bowerman
United States
Destination: KCLM Fairchild Intl
United States
More flights between these airports :: More routes between these airports
Route:
File this flight plan on PilotEdge
Remarks:
Altitude:
(Current/Filed)
6,000ft
Speed:
(Current/Filed)
165kts
Departed: 13-Jul-20 03:44 PM
Arrived: 13-Jul-20 04:42 PM
Distance/Time
Traveled:
71nm/0:58
Distance/Time
To Go:
Arrived

Flight Plot

Page will automatically refresh every two minutes.

Flight plan parsing failed; only flown route is shown


Map Options




Map Legend


Flown Route
Filed Route
Departure Airport
Arrival Airport
Navaid (VOR, NDB)
Fix

Horizontal Profiles

Position Reports

Time Latitude Longitude Heading Altitude Ground
Speed
13-Jul-20 15:41 46.973063 -123.927224 127 25ft 0kts
13-Jul-20 15:42 46.972289 -123.927501 259 23ft 10kts
13-Jul-20 15:43 46.972566 -123.954625 320 481ft 98kts
13-Jul-20 15:44 46.997994 -123.973698 319 1569ft 111kts
13-Jul-20 15:45 47.021947 -124.004951 315 2578ft 119kts
13-Jul-20 15:46 47.046702 -124.038299 315 3577ft 122kts
13-Jul-20 15:47 47.071787 -124.072195 316 4571ft 122kts
13-Jul-20 15:48 47.096405 -124.105521 316 5557ft 119kts
13-Jul-20 15:49 47.125998 -124.130867 343 6005ft 138kts
13-Jul-20 15:50 47.165184 -124.142778 346 6001ft 147kts
13-Jul-20 15:51 47.205710 -124.154356 346 6000ft 150kts
13-Jul-20 15:52 47.246759 -124.166060 346 6000ft 150kts
13-Jul-20 15:53 47.287764 -124.177771 346 6000ft 150kts
13-Jul-20 15:54 47.328783 -124.189505 346 5999ft 150kts
13-Jul-20 15:55 47.369819 -124.201262 346 6000ft 150kts
13-Jul-20 15:56 47.410884 -124.213046 346 6002ft 150kts
13-Jul-20 15:57 47.451906 -124.224826 346 6005ft 150kts
13-Jul-20 15:58 47.491535 -124.243379 336 6009ft 150kts
13-Jul-20 15:59 47.529962 -124.267024 335 6013ft 150kts
13-Jul-20 16:00 47.568493 -124.291171 335 6016ft 150kts
13-Jul-20 16:01 47.607000 -124.315405 335 6000ft 151kts
13-Jul-20 16:02 47.645677 -124.339793 335 5999ft 151kts
13-Jul-20 16:03 47.684370 -124.364234 335 5999ft 151kts
13-Jul-20 16:04 47.722836 -124.388571 335 5999ft 151kts
13-Jul-20 16:05 47.761519 -124.413086 335 5999ft 151kts
13-Jul-20 16:06 47.799985 -124.437503 335 5999ft 151kts
13-Jul-20 16:07 47.838640 -124.462080 335 5999ft 151kts
13-Jul-20 16:08 47.877057 -124.486545 335 5999ft 150kts
13-Jul-20 16:09 47.915579 -124.511116 335 5998ft 150kts
13-Jul-20 16:10 47.954205 -124.535794 335 5998ft 150kts
13-Jul-20 16:11 47.992686 -124.560419 335 5998ft 150kts
13-Jul-20 16:13 48.031152 -124.585075 335 5998ft 150kts
13-Jul-20 16:14 48.071780 -124.599759 352 5998ft 152kts
13-Jul-20 16:15 48.113998 -124.605403 353 5999ft 152kts
13-Jul-20 16:16 48.156453 -124.610412 353 5999ft 153kts
13-Jul-20 16:17 48.198730 -124.615306 353 5999ft 153kts
13-Jul-20 16:18 48.241104 -124.620203 353 5999ft 153kts
13-Jul-20 16:19 48.283501 -124.625018 357 5998ft 153kts
13-Jul-20 16:20 48.313799 -124.580226 56 5999ft 160kts
13-Jul-20 16:21 48.335753 -124.521665 60 5999ft 161kts
13-Jul-20 16:22 48.356531 -124.461748 60 5999ft 161kts
13-Jul-20 16:23 48.369611 -124.399201 105 6005ft 165kts
13-Jul-20 16:24 48.351090 -124.335709 117 5999ft 166kts
13-Jul-20 16:25 48.328861 -124.274785 119 5999ft 166kts
13-Jul-20 16:26 48.306020 -124.214141 119 5999ft 166kts
13-Jul-20 16:27 48.283142 -124.153744 119 6000ft 166kts
13-Jul-20 16:28 48.260207 -124.093377 119 6000ft 166kts
13-Jul-20 16:28 48.240709 -124.042175 119 5726ft 177kts
13-Jul-20 16:30 48.211110 -123.964660 119 4808ft 187kts
13-Jul-20 16:31 48.187387 -123.895356 105 4012ft 187kts
13-Jul-20 16:31 48.176960 -123.832812 93 3343ft 185kts
13-Jul-20 16:33 48.182488 -123.744961 98 2420ft 182kts
13-Jul-20 16:33 48.175117 -123.683150 99 1759ft 180kts
13-Jul-20 16:34 48.164197 -123.611582 105 1304ft 164kts
13-Jul-20 16:36 48.148983 -123.539401 130 1304ft 152kts
13-Jul-20 16:36 48.134596 -123.495958 98 1296ft 134kts
13-Jul-20 16:37 48.129607 -123.442755 96 1297ft 125kts
13-Jul-20 16:38 48.109768 -123.428645 274 1163ft 99kts
13-Jul-20 16:39 48.113328 -123.467896 285 601ft 91kts
13-Jul-20 16:40 48.118590 -123.497511 285 266ft 57kts
13-Jul-20 16:41 48.118663 -123.502076 195 267ft 0kts
13-Jul-20 16:42 48.118509 -123.502146 196 267ft 0kts
13-Jul-20 16:43 48.117582 -123.500256 239 266ft 9kts
13-Jul-20 16:44 48.117403 -123.501099 280 268ft 0kts
13-Jul-20 16:45 48.117403 -123.501099 280 268ft 0kts
13-Jul-20 16:46 48.112523 -123.463598 287 694ft 96kts
13-Jul-20 16:47 48.118059 -123.494587 286 283ft 65kts
13-Jul-20 16:48 48.117403 -123.501099 280 268ft 0kts
13-Jul-20 16:49 48.117403 -123.501099 280 268ft 0kts
13-Jul-20 16:50 48.117403 -123.501099 280 268ft 0kts
13-Jul-20 16:51 48.117403 -123.501099 280 268ft 0kts
13-Jul-20 16:52 48.117403 -123.501099 280 268ft 0kts
13-Jul-20 16:53 48.117403 -123.501099 280 268ft 0kts
13-Jul-20 16:54 48.117403 -123.501099 280 268ft 0kts
13-Jul-20 16:55 48.117403 -123.501099 280 268ft 0kts

Navigation Log

Ident Type
Flight plan parsing failed, navigation log unavailable